Agate, Nebraska
Current Conditions -  °F | °C
As of 8:53 PM on Wednesday 28 Jan 2015 (Local Time) from KTOR Reporting Station
Overcast Overcast  
Wind Chill: 35°   Ceiling: 8500
Heat Index: 43°   Visibility: 10mi
Dew Point: 28°   Wind: 16mph
Humidity: 56%   Direction: 340°NNW
Pressure: 30.26"   Gusts: 22mph
Location:  42.42°N, 103.79°W
Report Text: KTOR 290353Z AUTO 34014G19KT 10SM BKN085 OVC100 06/M02 A3026 RMK AO2 SLP243 T00611022
Loading
Personal Weather Stations






























Interactive Weather Map New forecast layout! Learn more

10-Day Weather Forecast

Advertisements
Track Severe Weather on mobile